createdAt,value
2018-12-27T00:00:10.295Z,13.25
2018-12-27T00:02:54.938Z,12.20
2018-12-27T00:05:35.510Z,12.68
2018-12-27T00:08:17.686Z,12.45
2018-12-27T00:11:00.663Z,10.88
2018-12-27T00:16:55.746Z,11.80
2018-12-27T00:22:48.667Z,14.55
2018-12-27T00:25:29.128Z,14.38
2018-12-27T00:28:11.401Z,15.00
2018-12-27T00:30:53.634Z,16.12
2018-12-27T00:33:35.449Z,14.50
2018-12-27T00:36:16.899Z,13.93
2018-12-27T00:38:51.508Z,14.10
2018-12-27T00:41:40.116Z,13.80
2018-12-27T00:44:42.631Z,11.20
2018-12-27T00:47:19.598Z,13.15
2018-12-27T00:53:17.599Z,10.30
2018-12-27T00:56:05.388Z,11.93
2018-12-27T00:58:53.258Z,11.78
2018-12-27T01:01:41.217Z,11.48
2018-12-27T01:04:11.172Z,11.65
2018-12-27T01:07:00.109Z,11.40
2018-12-27T01:09:49.112Z,10.70
2018-12-27T01:12:37.629Z,11.05
2018-12-27T01:15:26.077Z,11.08
2018-12-27T01:18:14.712Z,10.40
2018-12-27T01:20:56.077Z,11.65
2018-12-27T01:23:36.862Z,11.30
2018-12-27T01:26:16.647Z,9.60
2018-12-27T01:29:05.209Z,12.00
2018-12-27T01:31:54.193Z,11.03
2018-12-27T01:34:24.067Z,8.95
2018-12-27T01:37:13.202Z,10.78
2018-12-27T01:39:43.039Z,9.80
2018-12-27T01:42:32.088Z,11.03
2018-12-27T01:48:30.412Z,9.98
2018-12-27T01:51:19.186Z,10.38
2018-12-27T01:54:08.021Z,12.18
2018-12-27T01:56:56.797Z,11.28
2018-12-27T01:59:45.522Z,11.15
2018-12-27T02:02:34.121Z,11.20
2018-12-27T02:05:23.093Z,12.13
2018-12-27T02:08:11.414Z,11.00
2018-12-27T02:11:17.439Z,11.40
2018-12-27T02:13:53.688Z,11.12
2018-12-27T02:16:42.375Z,8.80
2018-12-27T02:19:24.783Z,8.43
2018-12-27T02:22:06.746Z,10.05
2018-12-27T02:24:48.527Z,10.00
2018-12-27T02:27:30.176Z,9.20
2018-12-27T02:30:11.959Z,10.38
2018-12-27T02:32:53.241Z,9.28
2018-12-27T02:35:33.997Z,10.32
2018-12-27T02:38:15.112Z,7.08
2018-12-27T02:41:05.896Z,11.45
2018-12-27T02:43:57.495Z,10.58
2018-12-27T02:46:46.535Z,10.72
2018-12-27T02:49:35.285Z,7.70
2018-12-27T02:52:24.841Z,7.67
2018-12-27T02:55:13.663Z,8.63
2018-12-27T02:58:02.557Z,7.45
2018-12-27T03:04:02.037Z,7.67
2018-12-27T03:06:53.014Z,6.83
2018-12-27T03:09:42.243Z,7.75
2018-12-27T03:12:30.968Z,7.30
2018-12-27T03:15:19.902Z,6.83
2018-12-27T03:18:08.944Z,6.17
2018-12-27T03:20:50.418Z,7.15
2018-12-27T03:26:38.153Z,7.75
2018-12-27T03:32:18.817Z,7.17
2018-12-27T03:35:03.338Z,7.15
2018-12-27T03:37:44.441Z,6.75
2018-12-27T03:40:26.256Z,7.20
2018-12-27T03:43:07.643Z,7.03
2018-12-27T03:45:49.214Z,6.80
2018-12-27T03:51:29.183Z,8.03
2018-12-27T03:54:10.642Z,6.53
2018-12-27T04:03:08.770Z,7.05
2018-12-27T04:05:50.085Z,7.28
2018-12-27T04:08:34.561Z,6.72
2018-12-27T04:11:15.834Z,7.83
2018-12-27T04:13:57.619Z,7.33
2018-12-27T04:22:53.596Z,6.85
2018-12-27T04:25:35.017Z,7.00
2018-12-27T04:28:17.846Z,7.00
2018-12-27T04:30:59.437Z,7.95
2018-12-27T04:33:40.383Z,7.55
2018-12-27T04:36:22.034Z,7.95
2018-12-27T04:42:15.620Z,6.62
2018-12-27T04:44:57.159Z,8.15
2018-12-27T04:47:41.646Z,7.20
2018-12-27T04:50:22.280Z,7.20
2018-12-27T04:55:52.532Z,7.83
2018-12-27T04:58:38.623Z,6.97
2018-12-27T05:01:24.222Z,6.50
2018-12-27T05:04:08.228Z,6.60
2018-12-27T05:06:49.815Z,6.87
2018-12-27T05:12:42.744Z,6.50
2018-12-27T05:24:41.033Z,7.62
2018-12-27T05:33:05.832Z,6.87
2018-12-27T05:35:46.425Z,7.05
2018-12-27T05:38:30.172Z,6.85
2018-12-27T05:50:07.386Z,6.20
2018-12-27T05:55:45.411Z,7.08
2018-12-27T05:58:57.842Z,6.62
2018-12-27T06:11:35.590Z,6.55
2018-12-27T06:29:43.931Z,6.70
2018-12-27T06:32:51.678Z,6.67
2018-12-27T06:36:06.826Z,6.50
2018-12-27T06:39:14.946Z,8.18
2018-12-27T06:42:02.925Z,7.10
2018-12-27T06:44:51.190Z,12.43
2018-12-27T06:51:09.711Z,7.92
2018-12-27T06:54:01.017Z,8.98
2018-12-27T06:56:49.259Z,7.05
2018-12-27T06:57:48.835Z,10.03
2018-12-27T07:02:33.089Z,9.65
2018-12-27T07:06:07.758Z,7.85
2018-12-27T07:15:23.538Z,7.25
2018-12-27T07:18:31.232Z,11.45
2018-12-27T07:21:13.698Z,9.98
2018-12-27T07:24:25.264Z,9.65
2018-12-27T07:27:07.819Z,10.63
2018-12-27T07:35:19.993Z,8.10
2018-12-27T07:38:07.550Z,9.35
2018-12-27T07:40:48.294Z,13.48
2018-12-27T07:46:18.733Z,22.82
2018-12-27T08:01:23.426Z,17.30
2018-12-27T08:04:04.427Z,19.32
2018-12-27T08:06:45.583Z,18.20
2018-12-27T08:09:27.187Z,17.05
2018-12-27T08:15:24.448Z,22.37
2018-12-27T08:18:05.813Z,22.58
2018-12-27T08:20:49.597Z,18.40
2018-12-27T08:23:32.342Z,16.55
2018-12-27T08:26:12.998Z,18.23
2018-12-27T08:28:57.439Z,20.52
2018-12-27T08:31:38.940Z,20.65
2018-12-27T08:34:20.745Z,22.22
2018-12-27T08:37:02.197Z,18.12
2018-12-27T08:42:45.708Z,15.83
2018-12-27T08:45:27.394Z,14.05
2018-12-27T08:48:08.604Z,12.45
2018-12-27T08:50:49.481Z,13.03
2018-12-27T08:53:30.840Z,11.18
2018-12-27T08:56:12.390Z,9.80
2018-12-27T08:58:53.142Z,11.15
2018-12-27T09:04:42.993Z,14.30
2018-12-27T09:07:24.845Z,10.13
2018-12-27T09:13:17.931Z,15.55
2018-12-27T09:15:59.197Z,13.50
2018-12-27T09:18:40.048Z,19.32
2018-12-27T09:21:21.476Z,13.20
2018-12-27T09:27:14.804Z,13.50
2018-12-27T09:29:56.486Z,11.28
2018-12-27T09:32:38.274Z,10.48
2018-12-27T09:35:26.119Z,10.23
2018-12-27T09:41:02.382Z,10.78
2018-12-27T09:46:55.659Z,12.75
2018-12-27T09:49:36.929Z,11.90
2018-12-27T09:52:17.612Z,11.10
2018-12-27T09:58:11.719Z,12.23
2018-12-27T10:00:52.305Z,12.73
2018-12-27T10:03:33.119Z,11.63
2018-12-27T10:06:14.523Z,11.80
2018-12-27T10:11:54.328Z,13.45
2018-12-27T10:17:47.985Z,12.75
2018-12-27T10:20:28.619Z,13.35
2018-12-27T10:23:09.933Z,10.90
2018-12-27T10:29:03.567Z,14.70
2018-12-27T10:31:44.269Z,42.13
2018-12-27T10:34:25.298Z,22.13
2018-12-27T10:37:06.956Z,15.20
2018-12-27T10:42:59.924Z,11.38
2018-12-27T10:45:40.819Z,10.95
2018-12-27T10:48:21.386Z,13.88
2018-12-27T10:54:15.311Z,9.43
2018-12-27T10:56:44.080Z,9.60
2018-12-27T10:59:31.800Z,9.20
2018-12-27T11:02:19.497Z,11.30
2018-12-27T11:05:07.182Z,10.60
2018-12-27T11:07:54.909Z,10.50
2018-12-27T11:10:42.616Z,12.50
2018-12-27T11:13:30.315Z,8.83
2018-12-27T11:16:18.061Z,7.90
2018-12-27T11:19:05.724Z,5.93
2018-12-27T11:24:59.320Z,6.37
2018-12-27T11:27:40.675Z,5.90
2018-12-27T11:30:21.609Z,5.47
2018-12-27T11:36:02.005Z,5.67
2018-12-27T11:38:43.653Z,4.73
2018-12-27T11:44:37.582Z,7.93
2018-12-27T11:47:19.242Z,9.20
2018-12-27T11:50:00.775Z,8.63
2018-12-27T11:52:42.385Z,7.70
2018-12-27T11:58:25.373Z,5.83
2018-12-27T12:01:05.820Z,5.70
2018-12-27T12:09:46.603Z,4.97
2018-12-27T12:12:27.310Z,4.57
2018-12-27T12:15:08.288Z,5.00
2018-12-27T12:17:47.854Z,3.90
2018-12-27T12:23:31.169Z,2.80
2018-12-27T12:29:12.320Z,2.10
2018-12-27T12:31:54.737Z,2.57
2018-12-27T12:34:36.166Z,2.10
2018-12-27T12:40:30.234Z,2.90
2018-12-27T12:43:11.076Z,3.10
2018-12-27T12:45:51.601Z,2.80
2018-12-27T12:51:45.606Z,2.60
2018-12-27T12:54:26.538Z,2.80
2018-12-27T12:57:07.079Z,2.47
2018-12-27T13:02:46.603Z,3.77
2018-12-27T13:05:27.995Z,3.27
2018-12-27T13:11:21.615Z,3.23
2018-12-27T13:14:02.268Z,3.50
2018-12-27T13:16:42.823Z,3.23
2018-12-27T13:19:23.738Z,2.70
2018-12-27T13:25:06.165Z,2.33
2018-12-27T13:27:47.565Z,3.10
2018-12-27T13:33:27.345Z,2.73
2018-12-27T13:39:06.993Z,2.50
2018-12-27T13:41:48.508Z,2.23
2018-12-27T13:47:42.500Z,4.00
2018-12-27T13:50:23.859Z,3.73
2018-12-27T13:53:04.825Z,3.13
2018-12-27T13:55:45.611Z,2.90
2018-12-27T14:01:28.653Z,3.10
2018-12-27T14:04:10.095Z,2.50
2018-12-27T14:12:35.827Z,3.83
2018-12-27T14:15:16.885Z,2.80
2018-12-27T14:20:44.282Z,3.40
2018-12-27T14:23:31.845Z,3.57
2018-12-27T14:26:19.423Z,3.00
2018-12-27T14:29:07.282Z,2.07
2018-12-27T14:31:55.113Z,2.47
2018-12-27T14:34:42.827Z,2.33
2018-12-27T14:37:30.508Z,3.47
2018-12-27T14:40:18.257Z,2.70
2018-12-27T14:43:05.987Z,4.33
2018-12-27T14:45:53.706Z,3.83
2018-12-27T14:48:41.656Z,3.37
2018-12-27T14:51:29.403Z,3.73
2018-12-27T14:54:17.196Z,2.80
2018-12-27T14:57:05.011Z,4.30
2018-12-27T14:59:52.859Z,4.30
2018-12-27T15:02:40.648Z,4.90
2018-12-27T15:05:28.428Z,4.97
2018-12-27T15:08:16.205Z,6.77
2018-12-27T15:11:03.926Z,6.50
2018-12-27T15:13:51.538Z,7.57
2018-12-27T15:16:39.306Z,7.87
2018-12-27T15:19:27.082Z,6.93
2018-12-27T15:25:20.767Z,5.90
2018-12-27T15:27:49.440Z,4.43
2018-12-27T15:30:37.154Z,6.17
2018-12-27T15:33:24.740Z,7.73
2018-12-27T15:36:12.393Z,7.83
2018-12-27T15:39:00.015Z,12.60
2018-12-27T15:41:47.946Z,13.88
2018-12-27T15:44:35.839Z,13.25
2018-12-27T15:47:23.718Z,11.40
2018-12-27T15:50:13.976Z,10.98
2018-12-27T15:53:01.668Z,8.93
2018-12-27T15:55:49.634Z,8.13
2018-12-27T15:58:37.615Z,8.20
2018-12-27T16:01:25.224Z,10.20
2018-12-27T16:04:12.970Z,7.40
2018-12-27T16:07:01.954Z,6.60
2018-12-27T16:09:50.060Z,8.35
2018-12-27T16:12:37.804Z,7.25
2018-12-27T16:15:25.768Z,7.58
2018-12-27T16:18:13.431Z,7.72
2018-12-27T16:23:52.976Z,15.18
2018-12-27T16:32:13.720Z,19.07
2018-12-27T16:35:01.498Z,21.68
2018-12-27T16:37:49.367Z,22.90
2018-12-27T16:40:37.370Z,22.93
2018-12-27T16:43:25.320Z,22.02
2018-12-27T16:46:13.080Z,22.98
2018-12-27T16:49:00.641Z,18.45
2018-12-27T16:51:48.709Z,17.00
2018-12-27T16:54:36.585Z,16.73
2018-12-27T16:57:24.831Z,17.85
2018-12-27T17:00:12.485Z,17.37
2018-12-27T17:03:00.114Z,17.52
2018-12-27T17:05:48.195Z,14.38
2018-12-27T17:08:36.030Z,14.20
2018-12-27T17:11:24.169Z,15.50
2018-12-27T17:14:12.477Z,13.03
2018-12-27T17:17:00.738Z,11.50
2018-12-27T17:19:51.595Z,9.90
2018-12-27T17:28:42.132Z,11.83
2018-12-27T17:31:26.094Z,12.98
2018-12-27T17:34:08.911Z,15.18
2018-12-27T17:36:52.466Z,12.88
2018-12-27T17:39:33.938Z,11.65
2018-12-27T17:42:14.862Z,15.55
2018-12-27T17:48:07.846Z,15.28
2018-12-27T17:50:48.571Z,12.05
2018-12-27T17:53:30.784Z,8.45
2018-12-27T17:56:12.343Z,9.00
2018-12-27T18:02:07.785Z,15.95
2018-12-27T18:04:50.763Z,14.55
2018-12-27T18:10:40.988Z,22.80
2018-12-27T18:13:24.595Z,16.75
2018-12-27T18:18:47.791Z,13.28
2018-12-27T18:24:41.746Z,20.25
2018-12-27T18:27:30.224Z,21.40
2018-12-27T18:33:28.357Z,16.87
2018-12-27T18:36:17.553Z,18.40
2018-12-27T18:39:06.799Z,19.80
2018-12-27T18:45:04.977Z,27.30
2018-12-27T18:47:53.683Z,29.95
2018-12-27T18:50:45.434Z,27.82
2018-12-27T18:53:34.378Z,26.35
2018-12-27T18:56:22.844Z,26.05
2018-12-27T18:59:11.896Z,24.05
2018-12-27T19:02:19.227Z,25.40
2018-12-27T19:05:15.115Z,25.97
2018-12-27T19:08:03.609Z,25.90
2018-12-27T19:11:11.471Z,21.57
2018-12-27T19:14:20.809Z,18.92
2018-12-27T19:17:28.368Z,26.02
2018-12-27T19:20:09.827Z,35.98
2018-12-27T19:22:50.745Z,34.63
2018-12-27T19:25:31.512Z,29.23
2018-12-27T19:28:13.086Z,28.30
2018-12-27T19:30:54.359Z,31.80
2018-12-27T19:33:35.440Z,20.30
2018-12-27T19:39:02.644Z,15.03
2018-12-27T19:41:44.114Z,16.80
2018-12-27T19:47:03.521Z,56.15
2018-12-27T19:49:54.671Z,49.80
2018-12-27T19:52:43.825Z,45.95
2018-12-27T19:55:32.331Z,35.58
2018-12-27T19:58:20.852Z,29.63
2018-12-27T20:01:09.495Z,26.73
2018-12-27T20:03:57.429Z,25.60
2018-12-27T20:06:45.274Z,27.50
2018-12-27T20:09:33.176Z,29.95
2018-12-27T20:12:20.963Z,31.37
2018-12-27T20:15:08.746Z,29.85
2018-12-27T20:17:56.639Z,28.02
2018-12-27T20:26:41.739Z,28.80
2018-12-27T20:29:23.606Z,30.55
2018-12-27T20:40:54.551Z,42.85
2018-12-27T20:49:36.639Z,33.25
2018-12-27T20:52:17.582Z,35.63
2018-12-27T20:54:58.849Z,39.35
2018-12-27T20:57:39.901Z,39.38
2018-12-27T21:00:21.275Z,35.45
2018-12-27T21:03:02.759Z,34.35
2018-12-27T21:08:43.181Z,36.10
2018-12-27T21:17:24.752Z,35.63
2018-12-27T21:25:58.536Z,47.15
2018-12-27T21:31:52.977Z,55.70
2018-12-27T21:37:48.713Z,52.75
2018-12-27T21:40:33.268Z,55.10
2018-12-27T21:43:17.733Z,50.40
2018-12-27T21:45:58.992Z,43.00
2018-12-27T21:48:39.912Z,36.05
2018-12-27T21:54:23.181Z,28.70
2018-12-27T21:56:54.898Z,26.73
2018-12-27T21:59:42.802Z,27.98
2018-12-27T22:02:30.758Z,26.87
2018-12-27T22:05:18.842Z,20.45
2018-12-27T22:08:06.643Z,17.87
2018-12-27T22:10:54.434Z,19.05
2018-12-27T22:13:42.466Z,18.90
2018-12-27T22:16:30.304Z,24.32
2018-12-27T22:19:18.312Z,30.00
2018-12-27T22:28:00.421Z,27.37
2018-12-27T22:33:53.671Z,27.82
2018-12-27T22:36:42.331Z,19.20
2018-12-27T22:39:31.010Z,19.80
2018-12-27T22:42:19.867Z,17.55
2018-12-27T22:45:08.808Z,19.82
2018-12-27T22:47:38.416Z,24.07
2018-12-27T22:50:28.464Z,15.83
2018-12-27T22:53:16.393Z,14.63
2018-12-27T22:56:04.852Z,19.90
2018-12-27T23:01:51.391Z,26.82
2018-12-27T23:04:58.292Z,24.80
2018-12-27T23:10:40.142Z,34.75
2018-12-27T23:13:28.212Z,29.98
2018-12-27T23:16:17.014Z,29.32
2018-12-27T23:19:26.070Z,30.30
2018-12-27T23:21:55.961Z,34.00
2018-12-27T23:24:44.380Z,30.17
2018-12-27T23:27:32.632Z,28.25
2018-12-27T23:30:20.777Z,29.80
2018-12-27T23:33:09.198Z,28.92
2018-12-27T23:35:58.133Z,29.30
2018-12-27T23:38:50.253Z,31.40
2018-12-27T23:41:56.722Z,31.37
2018-12-27T23:44:54.365Z,32.83
2018-12-27T23:48:05.347Z,32.88
2018-12-27T23:50:54.089Z,31.87
2018-12-27T23:53:42.793Z,32.50
2018-12-27T23:56:31.257Z,32.73
2018-12-27T23:59:20.018Z,32.10
